Time;durP1;ratioP1;P1;durP2;ratioP2;P2;SDS_P1;SDS_P2;PMS_P1;PMS_P2;Temp;Humidity;BMP_temperature;BMP_pressure;BME280_temperature;BME280_humidity;BME280_pressure;Samples;Min_cycle;Max_cycle;Signal;HPM_P1;HPM_P2
2022/01/26 00:06:09;;;;;;;34.60;20.77;;;;;;;;;;5078632;28;20460;-58
2022/01/26 00:08:42;;;;;;;33.80;21.83;;;;;;;;;;5076217;28;20172;-58
2022/01/26 00:11:13;;;;;;;39.23;22.97;;;;;;;;;;5079105;28;20410;-55
2022/01/26 00:13:43;;;;;;;36.30;22.43;;;;;;;;;;5083761;28;20267;-56
2022/01/26 00:16:21;;;;;;;36.13;22.57;;;;;;;;;;5088534;28;20267;-56
2022/01/26 00:18:48;;;;;;;36.93;22.57;;;;;;;;;;5065983;28;20186;-58
2022/01/26 00:21:28;;;;;;;37.50;21.03;;;;;;;;;;5066419;28;20413;-55
2022/01/26 00:24:23;;;;;;;41.00;22.03;;;;;;;;;;5071233;28;20198;-58
2022/01/26 00:29:22;;;;;;;34.90;21.47;;;;;;;;;;5079723;28;20165;-55
2022/01/26 00:40:33;;;;;;;35.87;21.37;;;;;;;;;;5065070;28;20233;-57
2022/01/26 00:43:14;;;;;;;34.90;20.17;;;;;;;;;;5082074;28;20725;-56
2022/01/26 00:45:44;;;;;;;35.53;21.83;;;;;;;;;;5088567;28;20160;-56
2022/01/26 00:48:11;;;;;;;41.97;21.87;;;;;;;;;;5081981;28;20167;-56
2022/01/26 00:50:49;;;;;;;37.57;21.40;;;;;;;;;;5083718;28;20168;-56
2022/01/26 00:53:44;;;;;;;37.73;22.83;;;;;;;;;;5063886;28;20238;-56
2022/01/26 00:56:11;;;;;;;40.57;22.13;;;;;;;;;;5072556;28;20504;-56
2022/01/26 00:58:37;;;;;;;37.37;21.83;;;;;;;;;;5079112;28;20232;-56
2022/01/26 01:01:10;;;;;;;36.07;23.27;;;;;;;;;;5068316;28;20172;-56
2022/01/26 01:03:40;;;;;;;38.90;23.17;;;;;;;;;;5060251;28;20199;-56
2022/01/26 01:09:09;;;;;;;38.80;24.07;;;;;;;;;;5049339;28;20311;-56
2022/01/26 01:11:35;;;;;;;43.13;23.90;;;;;;;;;;5069312;28;20454;-56
2022/01/26 01:14:02;;;;;;;42.43;24.27;;;;;;;;;;5070963;28;20172;-56
2022/01/26 01:16:28;;;;;;;39.23;23.37;;;;;;;;;;5069321;28;20607;-56
2022/01/26 01:24:49;;;;;;;36.57;23.17;;;;;;;;;;5087673;28;20230;-56
2022/01/26 01:27:46;;;;;;;40.40;23.43;;;;;;;;;;5087575;28;20180;-56
2022/01/26 01:30:25;;;;;;;39.97;23.73;;;;;;;;;;5076969;28;20210;-56
2022/01/26 01:33:03;;;;;;;44.10;25.17;;;;;;;;;;5067978;28;20264;-56
2022/01/26 01:35:31;;;;;;;46.33;24.10;;;;;;;;;;5083839;28;20172;-56
2022/01/26 01:38:06;;;;;;;38.60;23.00;;;;;;;;;;5081592;28;20179;-56
2022/01/26 01:40:33;;;;;;;42.20;23.80;;;;;;;;;;5072283;28;20179;-56
2022/01/26 01:42:59;;;;;;;46.23;24.13;;;;;;;;;;5060683;28;20674;-56
2022/01/26 01:45:38;;;;;;;42.00;24.60;;;;;;;;;;5068780;28;20535;-56
2022/01/26 01:48:05;;;;;;;38.27;23.87;;;;;;;;;;5082604;28;20220;-56
2022/01/26 01:50:40;;;;;;;43.23;23.73;;;;;;;;;;5079546;28;20207;-56
2022/01/26 01:53:10;;;;;;;41.73;25.27;;;;;;;;;;5076385;28;20163;-56
2022/01/26 01:55:39;;;;;;;40.70;24.30;;;;;;;;;;5066350;28;20545;-56
2022/01/26 01:58:05;;;;;;;41.57;23.57;;;;;;;;;;5074276;28;20469;-56
2022/01/26 02:00:34;;;;;;;38.57;24.87;;;;;;;;;;5052694;28;20214;-56
2022/01/26 02:03:04;;;;;;;41.03;23.87;;;;;;;;;;5080332;28;20200;-56
2022/01/26 02:05:33;;;;;;;45.30;25.77;;;;;;;;;;5085075;28;20175;-56
2022/01/26 02:08:00;;;;;;;42.43;24.97;;;;;;;;;;5068739;28;20164;-56
2022/01/26 02:10:30;;;;;;;42.07;26.40;;;;;;;;;;5068785;28;20553;-55
2022/01/26 02:13:08;;;;;;;44.33;26.53;;;;;;;;;;5065184;28;20167;-56
2022/01/26 02:16:17;;;;;;;41.33;25.87;;;;;;;;;;5090749;28;20186;-56
2022/01/26 02:49:16;;;;;;;43.40;25.20;;;;;;;;;;5089706;28;20553;-56
2022/01/26 02:54:47;;;;;;;60.30;31.27;;;;;;;;;;5083929;28;20187;-56
2022/01/26 03:00:22;;;;;;;54.30;32.20;;;;;;;;;;5079734;28;20240;-56
2022/01/26 03:05:25;;;;;;;56.23;31.87;;;;;;;;;;5083114;28;20255;-56
2022/01/26 03:07:57;;;;;;;59.60;33.50;;;;;;;;;;5075330;28;20286;-56
2022/01/26 03:13:04;;;;;;;60.53;32.80;;;;;;;;;;5069086;28;20199;-56
2022/01/26 03:15:40;;;;;;;58.53;33.37;;;;;;;;;;5076893;28;20185;-56
2022/01/26 03:20:57;;;;;;;62.53;35.03;;;;;;;;;;5059420;28;20234;-56
2022/01/26 03:34:13;;;;;;;61.00;34.20;;;;;;;;;;5073772;28;20187;-55
2022/01/26 03:36:50;;;;;;;59.73;33.30;;;;;;;;;;5085305;28;20441;-56
2022/01/26 03:39:30;;;;;;;58.30;33.60;;;;;;;;;;5071254;28;20852;-56
2022/01/26 03:42:13;;;;;;;65.47;33.93;;;;;;;;;;5050849;28;20678;-56
2022/01/26 03:44:39;;;;;;;64.93;33.67;;;;;;;;;;5053776;28;20184;-56
2022/01/26 03:47:06;;;;;;;63.90;35.70;;;;;;;;;;5092520;28;20408;-56
2022/01/26 03:49:38;;;;;;;60.17;32.80;;;;;;;;;;5066919;28;20184;-55
2022/01/26 03:52:07;;;;;;;61.87;33.17;;;;;;;;;;5061783;28;20703;-55
2022/01/26 03:54:37;;;;;;;62.43;34.77;;;;;;;;;;5048359;28;20188;-57
2022/01/26 03:57:03;;;;;;;59.27;32.87;;;;;;;;;;4829346;28;7137434;-56
2022/01/26 03:59:39;;;;;;;59.80;33.40;;;;;;;;;;5058661;28;20307;-56
2022/01/26 04:02:08;;;;;;;63.80;34.37;;;;;;;;;;5044739;28;20362;-56
2022/01/26 04:04:42;;;;;;;60.20;33.90;;;;;;;;;;5067987;28;20207;-56
2022/01/26 04:07:14;;;;;;;61.77;33.63;;;;;;;;;;5051461;28;20180;-56
2022/01/26 04:09:41;;;;;;;65.93;33.87;;;;;;;;;;5061656;28;20184;-56
2022/01/26 04:12:07;;;;;;;63.30;34.17;;;;;;;;;;5074579;28;20173;-56
2022/01/26 04:14:34;;;;;;;67.27;37.43;;;;;;;;;;5066620;28;20187;-56
2022/01/26 04:17:04;;;;;;;68.33;37.50;;;;;;;;;;5050114;28;20181;-56
2022/01/26 04:19:40;;;;;;;68.50;35.43;;;;;;;;;;5057043;28;20244;-56
2022/01/26 04:22:16;;;;;;;61.43;35.63;;;;;;;;;;5068089;28;20260;-56
2022/01/26 04:24:48;;;;;;;63.67;34.43;;;;;;;;;;5079765;28;20263;-56
2022/01/26 04:27:34;;;;;;;68.53;33.80;;;;;;;;;;5050893;28;20169;-56
2022/01/26 04:30:00;;;;;;;60.97;33.47;;;;;;;;;;5061053;28;20636;-56
2022/01/26 04:32:27;;;;;;;61.87;33.00;;;;;;;;;;5048557;28;20176;-57
2022/01/26 04:34:59;;;;;;;69.50;35.40;;;;;;;;;;5051936;28;20184;-56
2022/01/26 04:37:44;;;;;;;70.40;37.47;;;;;;;;;;5050115;28;20184;-56
2022/01/26 04:40:14;;;;;;;65.70;34.73;;;;;;;;;;5054949;28;20352;-56
2022/01/26 04:45:12;;;;;;;66.17;33.80;;;;;;;;;;5055660;28;20226;-56
2022/01/26 04:47:39;;;;;;;76.23;36.17;;;;;;;;;;5067689;28;20199;-56
2022/01/26 04:50:06;;;;;;;73.10;35.10;;;;;;;;;;5074115;28;20211;-56
2022/01/26 04:52:33;;;;;;;73.57;35.23;;;;;;;;;;5050070;28;20260;-56
2022/01/26 04:55:00;;;;;;;66.47;35.53;;;;;;;;;;5068583;28;20214;-55
2022/01/26 04:57:26;;;;;;;67.03;35.63;;;;;;;;;;5070627;28;20256;-55
2022/01/26 04:59:57;;;;;;;65.87;35.20;;;;;;;;;;5073705;28;20215;-56
2022/01/26 05:02:23;;;;;;;64.27;33.40;;;;;;;;;;5086997;28;20232;-56
2022/01/26 05:04:49;;;;;;;63.73;35.23;;;;;;;;;;5074465;28;20188;-56
2022/01/26 05:07:19;;;;;;;68.77;34.27;;;;;;;;;;5058486;28;20242;-56
2022/01/26 05:09:45;;;;;;;67.93;32.07;;;;;;;;;;5090100;28;20221;-56
2022/01/26 05:12:13;;;;;;;69.40;35.20;;;;;;;;;;5069529;28;20188;-56
2022/01/26 05:14:41;;;;;;;65.00;33.67;;;;;;;;;;5081230;28;20195;-56
2022/01/26 05:17:08;;;;;;;69.73;35.00;;;;;;;;;;5061141;28;20243;-56
2022/01/26 05:19:37;;;;;;;65.20;34.00;;;;;;;;;;5087717;28;20239;-56
2022/01/26 05:22:03;;;;;;;70.37;35.27;;;;;;;;;;5065556;28;20180;-56
2022/01/26 05:24:33;;;;;;;72.70;34.20;;;;;;;;;;5060100;28;20327;-56
2022/01/26 05:26:59;;;;;;;63.87;33.97;;;;;;;;;;5054372;28;20183;-56
2022/01/26 05:29:25;;;;;;;64.07;33.90;;;;;;;;;;5087032;28;20631;-56
2022/01/26 05:32:01;;;;;;;64.53;33.10;;;;;;;;;;5061802;28;20176;-56
2022/01/26 05:34:30;;;;;;;69.80;33.90;;;;;;;;;;5072710;28;20178;-56
2022/01/26 05:37:06;;;;;;;70.23;34.10;;;;;;;;;;5062023;28;20180;-55
2022/01/26 05:39:33;;;;;;;63.87;32.93;;;;;;;;;;5070087;28;20558;-55
2022/01/26 05:42:04;;;;;;;68.00;36.20;;;;;;;;;;5082847;28;20653;-55
2022/01/26 05:44:30;;;;;;;64.53;32.23;;;;;;;;;;5083510;28;20610;-55
2022/01/26 05:46:56;;;;;;;64.37;32.67;;;;;;;;;;5060636;28;20184;-55
2022/01/26 05:49:24;;;;;;;67.20;33.43;;;;;;;;;;5059824;28;20282;-55
2022/01/26 05:51:54;;;;;;;66.20;32.50;;;;;;;;;;5068821;28;20180;-55
2022/01/26 05:54:21;;;;;;;65.57;34.00;;;;;;;;;;5064128;28;20222;-55
2022/01/26 05:56:47;;;;;;;71.07;34.00;;;;;;;;;;5053111;28;20221;-56
2022/01/26 05:59:23;;;;;;;71.33;35.40;;;;;;;;;;5074264;28;20396;-56
2022/01/26 06:01:52;;;;;;;59.53;32.00;;;;;;;;;;5060725;28;20190;-56
2022/01/26 06:04:19;;;;;;;60.77;31.80;;;;;;;;;;5057880;28;20463;-56
2022/01/26 06:06:45;;;;;;;75.20;34.23;;;;;;;;;;5080135;28;20176;-56
2022/01/26 06:09:12;;;;;;;61.27;31.67;;;;;;;;;;5077050;28;20177;-56
2022/01/26 06:11:38;;;;;;;69.60;33.53;;;;;;;;;;5077013;28;20179;-55
2022/01/26 06:14:07;;;;;;;63.70;32.63;;;;;;;;;;5080788;28;20194;-56
2022/01/26 06:16:36;;;;;;;66.37;34.33;;;;;;;;;;5064867;28;20607;-57
2022/01/26 06:19:02;;;;;;;63.07;32.07;;;;;;;;;;5089934;28;20180;-56
2022/01/26 06:21:32;;;;;;;65.90;34.70;;;;;;;;;;5064585;28;20663;-56
2022/01/26 06:23:59;;;;;;;66.40;32.40;;;;;;;;;;5066182;28;20559;-56
2022/01/26 06:26:25;;;;;;;63.77;33.07;;;;;;;;;;5099180;28;20231;-55
2022/01/26 06:28:51;;;;;;;60.83;31.33;;;;;;;;;;5091292;28;20414;-56
2022/01/26 06:31:26;;;;;;;59.63;30.63;;;;;;;;;;5077574;28;20181;-56
2022/01/26 06:33:52;;;;;;;62.00;31.03;;;;;;;;;;5068260;28;20906;-56
2022/01/26 06:36:19;;;;;;;59.90;30.53;;;;;;;;;;5096355;28;20179;-56
2022/01/26 06:38:46;;;;;;;69.87;32.87;;;;;;;;;;5081906;28;20183;-56
2022/01/26 06:41:12;;;;;;;69.00;34.73;;;;;;;;;;5070274;28;20585;-56
2022/01/26 06:43:49;;;;;;;65.50;32.10;;;;;;;;;;5068856;28;20203;-56
2022/01/26 06:46:28;;;;;;;63.50;33.53;;;;;;;;;;5089117;28;20404;-55
2022/01/26 06:51:39;;;;;;;69.07;34.37;;;;;;;;;;5090303;28;20754;-56
2022/01/26 06:54:05;;;;;;;63.17;33.00;;;;;;;;;;5073291;28;20245;-56
2022/01/26 06:56:31;;;;;;;65.30;33.13;;;;;;;;;;5075486;28;20207;-56
2022/01/26 06:58:57;;;;;;;66.77;33.50;;;;;;;;;;5093828;28;20429;-56
2022/01/26 07:01:23;;;;;;;68.33;33.23;;;;;;;;;;5086004;28;20421;-56
2022/01/26 07:03:50;;;;;;;63.80;31.33;;;;;;;;;;5079241;28;20492;-56
2022/01/26 07:06:19;;;;;;;73.77;34.73;;;;;;;;;;5087328;28;20176;-56
2022/01/26 07:08:46;;;;;;;66.23;33.73;;;;;;;;;;5064459;28;20605;-56
2022/01/26 07:11:12;;;;;;;56.83;31.63;;;;;;;;;;5089874;28;20444;-56
2022/01/26 07:13:40;;;;;;;61.03;32.23;;;;;;;;;;5071736;28;20241;-56
2022/01/26 07:21:42;;;;;;;65.67;31.77;;;;;;;;;;5089289;28;20865;-56
2022/01/26 07:24:08;;;;;;;66.77;31.87;;;;;;;;;;5071868;28;20462;-56
2022/01/26 07:26:40;;;;;;;66.13;32.77;;;;;;;;;;5069961;28;20471;-56
2022/01/26 07:29:11;;;;;;;62.43;30.87;;;;;;;;;;5072216;28;20186;-56
2022/01/26 07:31:49;;;;;;;58.53;31.53;;;;;;;;;;5087775;28;20928;-56
2022/01/26 07:34:19;;;;;;;68.20;33.27;;;;;;;;;;5071953;28;20494;-55
2022/01/26 07:36:47;;;;;;;58.20;30.87;;;;;;;;;;5071687;28;20437;-55
2022/01/26 07:39:17;;;;;;;62.67;31.70;;;;;;;;;;5070429;28;20468;-55
2022/01/26 07:41:44;;;;;;;59.70;31.67;;;;;;;;;;5090156;28;20188;-55
2022/01/26 07:44:13;;;;;;;68.07;31.50;;;;;;;;;;5075185;28;20211;-55
2022/01/26 07:46:42;;;;;;;66.00;33.27;;;;;;;;;;5069754;28;20792;-55
2022/01/26 07:49:08;;;;;;;62.57;31.30;;;;;;;;;;5071649;28;20437;-55
2022/01/26 07:51:35;;;;;;;64.43;32.20;;;;;;;;;;5070706;28;20268;-55
2022/01/26 07:54:09;;;;;;;64.83;32.20;;;;;;;;;;5072044;28;20186;-56
2022/01/26 07:56:36;;;;;;;66.70;32.47;;;;;;;;;;5068426;28;20449;-55
2022/01/26 07:59:02;;;;;;;60.63;30.60;;;;;;;;;;5072053;28;20761;-55
2022/01/26 08:01:30;;;;;;;62.80;28.67;;;;;;;;;;5070063;28;20422;-55
2022/01/26 08:03:59;;;;;;;61.43;31.80;;;;;;;;;;5089472;28;20204;-55
2022/01/26 08:06:25;;;;;;;64.83;30.57;;;;;;;;;;5080550;28;20417;-56
2022/01/26 08:08:54;;;;;;;67.43;31.80;;;;;;;;;;5088449;28;20184;-55
2022/01/26 08:11:24;;;;;;;59.73;29.97;;;;;;;;;;5089902;28;20463;-55
2022/01/26 08:13:50;;;;;;;62.07;28.60;;;;;;;;;;5089582;28;20823;-56
2022/01/26 08:16:16;;;;;;;66.73;33.07;;;;;;;;;;5069160;28;20267;-56
2022/01/26 08:18:45;;;;;;;67.10;33.17;;;;;;;;;;5087069;28;20274;-55
2022/01/26 08:21:15;;;;;;;67.30;31.60;;;;;;;;;;5049852;28;20875;-56
2022/01/26 08:23:44;;;;;;;64.80;31.97;;;;;;;;;;5079127;28;20528;-55
2022/01/26 08:26:10;;;;;;;62.37;29.60;;;;;;;;;;5088169;28;20425;-55
2022/01/26 08:28:40;;;;;;;65.47;31.87;;;;;;;;;;5089370;28;20417;-56
2022/01/26 08:31:06;;;;;;;58.53;29.20;;;;;;;;;;5087661;28;20172;-56
2022/01/26 08:33:33;;;;;;;66.27;32.57;;;;;;;;;;5087430;28;20188;-56
2022/01/26 08:35:59;;;;;;;61.70;30.17;;;;;;;;;;5088539;28;20219;-56
2022/01/26 08:38:28;;;;;;;61.60;30.17;;;;;;;;;;5084727;28;20488;-56
2022/01/26 08:40:54;;;;;;;63.30;30.87;;;;;;;;;;5069929;28;20232;-56
2022/01/26 08:43:21;;;;;;;60.57;29.27;;;;;;;;;;5087997;28;20587;-56
2022/01/26 08:45:56;;;;;;;64.13;30.17;;;;;;;;;;5068933;28;20183;-55
2022/01/26 08:48:22;;;;;;;66.70;30.50;;;;;;;;;;5088165;28;20533;-55
2022/01/26 08:50:49;;;;;;;68.63;30.87;;;;;;;;;;5086935;28;20858;-55
2022/01/26 08:53:18;;;;;;;68.67;32.10;;;;;;;;;;5087023;28;20422;-55
2022/01/26 08:55:44;;;;;;;65.20;30.63;;;;;;;;;;5074904;28;20318;-56
2022/01/26 08:58:10;;;;;;;63.57;30.90;;;;;;;;;;5084729;28;20310;-55
2022/01/26 09:00:37;;;;;;;61.23;29.23;;;;;;;;;;5067648;28;20904;-56
2022/01/26 09:03:11;;;;;;;60.03;30.27;;;;;;;;;;5088377;28;20696;-56
2022/01/26 09:05:40;;;;;;;67.87;30.90;;;;;;;;;;5079766;28;20164;-56
2022/01/26 09:08:11;;;;;;;69.10;32.17;;;;;;;;;;5089074;28;20175;-56
2022/01/26 09:10:40;;;;;;;65.10;30.40;;;;;;;;;;5069245;28;20422;-56
2022/01/26 09:13:10;;;;;;;62.93;30.60;;;;;;;;;;5069230;28;20180;-56
2022/01/26 09:15:53;;;;;;;59.90;30.37;;;;;;;;;;5079903;28;20207;-56
2022/01/26 09:18:30;;;;;;;66.50;31.23;;;;;;;;;;5067373;28;20594;-56
2022/01/26 09:20:59;;;;;;;62.53;29.10;;;;;;;;;;5064865;28;20171;-55
2022/01/26 09:23:25;;;;;;;69.83;33.07;;;;;;;;;;5069819;28;20241;-56
2022/01/26 09:25:57;;;;;;;66.17;32.23;;;;;;;;;;5086857;28;20777;-56
2022/01/26 09:28:25;;;;;;;64.27;30.67;;;;;;;;;;5108972;28;20157;-56
2022/01/26 09:31:07;;;;;;;68.23;29.93;;;;;;;;;;5067155;28;20172;-56
2022/01/26 09:33:38;;;;;;;64.07;30.77;;;;;;;;;;5068847;28;20263;-55
2022/01/26 09:36:07;;;;;;;70.50;32.30;;;;;;;;;;5081200;28;20597;-56
2022/01/26 09:38:43;;;;;;;68.73;30.17;;;;;;;;;;5069425;28;20199;-56
2022/01/26 09:41:10;;;;;;;73.00;34.17;;;;;;;;;;5065935;28;20558;-55
2022/01/26 09:43:36;;;;;;;65.33;30.40;;;;;;;;;;5055729;28;20287;-56
2022/01/26 09:46:05;;;;;;;70.37;32.83;;;;;;;;;;5081102;28;20418;-55
2022/01/26 09:48:38;;;;;;;69.33;32.20;;;;;;;;;;5072193;28;20206;-56
2022/01/26 09:51:08;;;;;;;68.67;33.27;;;;;;;;;;5072595;28;20195;-56
2022/01/26 09:53:36;;;;;;;70.57;32.47;;;;;;;;;;5068229;28;20184;-56
2022/01/26 09:56:04;;;;;;;70.07;33.13;;;;;;;;;;5076573;28;20207;-56
2022/01/26 09:58:36;;;;;;;66.37;31.87;;;;;;;;;;5069712;28;20227;-55
2022/01/26 10:01:07;;;;;;;72.53;34.17;;;;;;;;;;5076218;28;20611;-55
2022/01/26 10:03:39;;;;;;;66.77;31.57;;;;;;;;;;5067690;28;20200;-55
2022/01/26 10:06:24;;;;;;;65.40;31.77;;;;;;;;;;5079654;28;20730;-55
2022/01/26 10:09:02;;;;;;;67.10;31.70;;;;;;;;;;5083637;28;20179;-56
2022/01/26 10:17:22;;;;;;;68.03;32.00;;;;;;;;;;5076284;28;20409;-56
2022/01/26 10:19:54;;;;;;;72.63;34.60;;;;;;;;;;5079832;28;20679;-56
2022/01/26 10:22:41;;;;;;;71.97;32.77;;;;;;;;;;5073679;28;20405;-56
2022/01/26 10:25:13;;;;;;;64.80;31.77;;;;;;;;;;5074180;28;20172;-56
2022/01/26 10:27:42;;;;;;;69.83;32.13;;;;;;;;;;5073135;28;20414;-55
2022/01/26 10:30:13;;;;;;;72.40;33.00;;;;;;;;;;5071954;28;20219;-56
2022/01/26 10:32:41;;;;;;;61.87;30.37;;;;;;;;;;5072188;28;20417;-56
2022/01/26 10:35:08;;;;;;;63.83;32.63;;;;;;;;;;5074470;28;20418;-56
2022/01/26 10:37:55;;;;;;;69.43;33.50;;;;;;;;;;5072308;28;20420;-56
2022/01/26 10:40:24;;;;;;;68.57;33.10;;;;;;;;;;5091234;28;20924;-56
2022/01/26 10:42:53;;;;;;;69.43;33.73;;;;;;;;;;5072633;28;20441;-56
2022/01/26 10:45:31;;;;;;;71.03;32.37;;;;;;;;;;5097308;28;20420;-56
2022/01/26 10:48:08;;;;;;;73.17;33.70;;;;;;;;;;5091151;28;20155;-56
2022/01/26 10:53:10;;;;;;;62.37;31.00;;;;;;;;;;5091092;28;20188;-56
2022/01/26 10:55:40;;;;;;;67.83;33.27;;;;;;;;;;5072830;28;20182;-56
2022/01/26 10:58:16;;;;;;;78.13;33.80;;;;;;;;;;5089029;28;20326;-56
2022/01/26 11:00:43;;;;;;;73.23;32.43;;;;;;;;;;5071957;28;20179;-56
2022/01/26 11:03:09;;;;;;;72.17;31.83;;;;;;;;;;5071789;28;20287;-56
2022/01/26 11:05:35;;;;;;;77.27;33.57;;;;;;;;;;5072202;28;20213;-56
2022/01/26 11:08:20;;;;;;;68.03;33.03;;;;;;;;;;5090886;28;20178;-55
2022/01/26 11:10:49;;;;;;;72.60;33.53;;;;;;;;;;5071870;28;20194;-56
2022/01/26 11:13:32;;;;;;;73.53;33.77;;;;;;;;;;5072186;28;20180;-56
2022/01/26 11:16:11;;;;;;;72.13;33.20;;;;;;;;;;5083434;28;20519;-56
2022/01/26 11:18:47;;;;;;;66.33;32.40;;;;;;;;;;5066600;28;20540;-56
2022/01/26 11:21:28;;;;;;;75.00;33.70;;;;;;;;;;5072200;28;20190;-55
2022/01/26 11:24:05;;;;;;;70.10;34.63;;;;;;;;;;5060554;28;20195;-56
2022/01/26 11:26:38;;;;;;;70.53;33.10;;;;;;;;;;5089698;28;20410;-55
2022/01/26 11:29:15;;;;;;;67.57;32.23;;;;;;;;;;5071597;28;20501;-56
2022/01/26 11:31:44;;;;;;;77.43;32.63;;;;;;;;;;5087923;28;20171;-56
2022/01/26 11:34:18;;;;;;;69.63;33.13;;;;;;;;;;5090505;28;20624;-55
2022/01/26 11:36:45;;;;;;;66.70;30.27;;;;;;;;;;5071441;28;20203;-56
2022/01/26 11:42:21;;;;;;;69.60;33.63;;;;;;;;;;5036980;28;20434;-55
2022/01/26 11:45:06;;;;;;;76.73;32.33;;;;;;;;;;5086362;28;20800;-56
2022/01/26 11:47:33;;;;;;;69.67;33.13;;;;;;;;;;5065951;28;20519;-56
2022/01/26 11:50:12;;;;;;;60.67;28.93;;;;;;;;;;5070346;28;20215;-56
2022/01/26 11:52:57;;;;;;;64.53;30.70;;;;;;;;;;5072080;28;20241;-56
2022/01/26 11:55:30;;;;;;;65.03;30.00;;;;;;;;;;5071069;28;20259;-56
2022/01/26 11:58:05;;;;;;;68.33;32.33;;;;;;;;;;5070696;28;20242;-56
2022/01/26 12:00:55;;;;;;;62.03;29.37;;;;;;;;;;5069451;28;20167;-56
2022/01/26 12:03:43;;;;;;;64.83;30.20;;;;;;;;;;5086723;28;20207;-56
2022/01/26 12:06:17;;;;;;;63.13;29.43;;;;;;;;;;5071938;28;20176;-56
2022/01/26 12:08:47;;;;;;;69.20;29.47;;;;;;;;;;5088654;28;20167;-56
2022/01/26 12:11:14;;;;;;;58.67;29.27;;;;;;;;;;5065583;28;20451;-56
2022/01/26 12:13:50;;;;;;;63.00;30.17;;;;;;;;;;5089296;28;20418;-56
2022/01/26 12:16:25;;;;;;;63.73;29.20;;;;;;;;;;5054854;28;20266;-56
2022/01/26 12:19:08;;;;;;;62.43;29.43;;;;;;;;;;5087806;28;20171;-56
2022/01/26 12:35:50;;;;;;;61.67;29.80;;;;;;;;;;5088776;28;20205;-56
2022/01/26 12:38:34;;;;;;;53.50;26.87;;;;;;;;;;5059156;28;20164;-56
2022/01/26 12:43:56;;;;;;;67.47;30.10;;;;;;;;;;5085277;28;20202;-56
2022/01/26 12:46:27;;;;;;;55.50;28.83;;;;;;;;;;5069402;28;20171;-55
2022/01/26 12:48:55;;;;;;;57.40;29.37;;;;;;;;;;5070430;28;20211;-55
2022/01/26 12:51:22;;;;;;;56.20;28.77;;;;;;;;;;5070728;28;20171;-56
2022/01/26 12:53:56;;;;;;;56.50;27.90;;;;;;;;;;5070056;28;20554;-56
2022/01/26 12:56:24;;;;;;;61.93;26.77;;;;;;;;;;5088915;28;20465;-56
2022/01/26 12:58:58;;;;;;;60.07;28.63;;;;;;;;;;5088407;28;20472;-56
2022/01/26 13:01:31;;;;;;;56.23;27.33;;;;;;;;;;5088055;28;20426;-56
2022/01/26 13:04:01;;;;;;;59.77;28.27;;;;;;;;;;5078758;28;20310;-56
2022/01/26 13:06:39;;;;;;;53.50;26.17;;;;;;;;;;5082609;28;20172;-56
2022/01/26 13:09:25;;;;;;;61.30;28.73;;;;;;;;;;5066991;28;20470;-56
2022/01/26 13:12:03;;;;;;;56.67;26.77;;;;;;;;;;5091395;28;20892;-56
2022/01/26 13:14:56;;;;;;;54.47;26.33;;;;;;;;;;5061301;28;20522;-56
2022/01/26 13:20:26;;;;;;;52.13;27.10;;;;;;;;;;5085685;28;20545;-56
2022/01/26 13:39:02;;;;;;;56.43;25.90;;;;;;;;;;5088466;28;20198;-56
2022/01/26 13:41:41;;;;;;;54.73;26.80;;;;;;;;;;5055294;28;20425;-56
2022/01/26 13:52:35;;;;;;;55.00;27.17;;;;;;;;;;5085702;28;20932;-56
2022/01/26 14:00:25;;;;;;;50.80;24.53;;;;;;;;;;5074651;28;20233;-55
2022/01/26 14:02:57;;;;;;;54.20;26.97;;;;;;;;;;5092149;28;20171;-56
2022/01/26 14:05:23;;;;;;;57.47;26.47;;;;;;;;;;5091265;28;20168;-56
2022/01/26 14:07:50;;;;;;;47.73;24.93;;;;;;;;;;5091954;28;20771;-56
2022/01/26 14:10:23;;;;;;;54.13;25.83;;;;;;;;;;5076262;28;20211;-56
2022/01/26 14:12:50;;;;;;;50.93;25.57;;;;;;;;;;5074641;28;20428;-56
2022/01/26 14:15:23;;;;;;;49.90;24.10;;;;;;;;;;5086776;28;20171;-56
2022/01/26 14:18:01;;;;;;;51.10;25.10;;;;;;;;;;5073862;28;20567;-56
2022/01/26 14:20:56;;;;;;;49.23;23.40;;;;;;;;;;5066876;28;20647;-56
2022/01/26 14:25:55;;;;;;;51.90;23.50;;;;;;;;;;5090862;28;20498;-56
2022/01/26 14:28:28;;;;;;;51.80;24.67;;;;;;;;;;5057247;28;20176;-56
2022/01/26 14:55:12;;;;;;;42.40;22.53;;;;;;;;;;5087536;28;20183;-56
2022/01/26 15:08:48;;;;;;;46.43;22.37;;;;;;;;;;5069998;28;20184;-56
2022/01/26 15:35:07;;;;;;;40.93;21.57;;;;;;;;;;5065295;28;20561;-56
2022/01/26 15:40:49;;;;;;;39.13;21.30;;;;;;;;;;5060415;28;20187;-56
2022/01/26 15:48:51;;;;;;;40.60;23.00;;;;;;;;;;5057884;28;20536;-56
2022/01/26 16:07:45;;;;;;;39.00;21.67;;;;;;;;;;5092312;28;20180;-56
2022/01/26 16:21:24;;;;;;;42.10;21.93;;;;;;;;;;5087267;28;20202;-56
2022/01/26 16:37:45;;;;;;;37.77;21.63;;;;;;;;;;5090004;28;20554;-56
2022/01/26 18:50:59;;;;;;;42.00;22.70;;;;;;;;;;5098621;28;20182;-57
2022/01/26 18:53:25;;;;;;;41.93;23.30;;;;;;;;;;5091736;28;20445;-56
2022/01/26 18:55:52;;;;;;;44.07;24.37;;;;;;;;;;5072963;28;20190;-56
2022/01/26 18:58:21;;;;;;;46.40;21.97;;;;;;;;;;5086460;28;20219;-56
2022/01/26 19:00:53;;;;;;;43.00;23.07;;;;;;;;;;5087978;28;21024;-56
2022/01/26 19:03:22;;;;;;;38.53;21.57;;;;;;;;;;5098499;28;20904;-57
2022/01/26 19:05:48;;;;;;;45.70;23.80;;;;;;;;;;5081460;28;20199;-57
2022/01/26 19:08:22;;;;;;;41.37;21.97;;;;;;;;;;5073314;28;20675;-57
2022/01/26 19:10:48;;;;;;;42.00;21.60;;;;;;;;;;5068289;28;20183;-56
2022/01/26 19:13:15;;;;;;;39.33;21.23;;;;;;;;;;5054254;28;20173;-56
2022/01/26 19:15:41;;;;;;;38.03;20.33;;;;;;;;;;5072805;28;20180;-57
2022/01/26 19:18:16;;;;;;;37.87;20.60;;;;;;;;;;5081609;28;20174;-57
2022/01/26 19:21:04;;;;;;;36.40;21.50;;;;;;;;;;5053899;28;20541;-57
2022/01/26 19:23:44;;;;;;;38.33;21.33;;;;;;;;;;5070293;28;20659;-56
2022/01/26 19:26:21;;;;;;;39.70;21.97;;;;;;;;;;5084217;28;20660;-56
2022/01/26 19:28:57;;;;;;;37.10;21.33;;;;;;;;;;5052893;28;20818;-56
2022/01/26 19:50:54;;;;;;;36.17;20.10;;;;;;;;;;5073714;28;20198;-57
2022/01/26 19:53:21;;;;;;;37.10;20.37;;;;;;;;;;5068838;28;20503;-56
2022/01/26 19:55:49;;;;;;;37.07;20.27;;;;;;;;;;5064242;28;20271;-56
2022/01/26 19:58:25;;;;;;;33.47;19.17;;;;;;;;;;5075030;28;20522;-56
2022/01/26 20:00:52;;;;;;;36.50;19.43;;;;;;;;;;5067015;28;20274;-56
2022/01/26 20:03:21;;;;;;;34.73;18.73;;;;;;;;;;5082588;28;20175;-57
2022/01/26 20:05:50;;;;;;;34.90;20.77;;;;;;;;;;5062425;28;20271;-56
2022/01/26 20:08:39;;;;;;;40.47;19.73;;;;;;;;;;5074252;28;20693;-56
2022/01/26 20:11:13;;;;;;;34.00;18.40;;;;;;;;;;5092592;28;20175;-57
2022/01/26 20:13:42;;;;;;;34.03;19.23;;;;;;;;;;5075937;28;20172;-56
2022/01/26 20:16:11;;;;;;;32.77;19.03;;;;;;;;;;5075572;28;20183;-57
2022/01/26 20:18:38;;;;;;;34.47;19.03;;;;;;;;;;5066097;28;20184;-57
2022/01/26 20:21:05;;;;;;;32.33;19.23;;;;;;;;;;5081830;28;20598;-56
2022/01/26 20:23:39;;;;;;;34.27;19.50;;;;;;;;;;5106010;28;20187;-57
2022/01/26 20:26:07;;;;;;;31.23;18.00;;;;;;;;;;5080445;28;20177;-57
2022/01/26 20:28:42;;;;;;;37.10;20.90;;;;;;;;;;5083417;28;20172;-56
2022/01/26 20:31:18;;;;;;;29.70;19.50;;;;;;;;;;5078660;28;20167;-56
2022/01/26 20:33:46;;;;;;;28.00;17.03;;;;;;;;;;5083708;28;20198;-56
2022/01/26 20:36:12;;;;;;;33.93;18.60;;;;;;;;;;5088552;28;20437;-56
2022/01/26 20:38:39;;;;;;;31.50;18.73;;;;;;;;;;5067669;28;20982;-56
2022/01/26 20:41:05;;;;;;;34.57;17.33;;;;;;;;;;5071080;28;20175;-56
2022/01/26 20:43:35;;;;;;;29.77;17.30;;;;;;;;;;5070039;28;20184;-57
2022/01/26 20:46:05;;;;;;;30.93;17.87;;;;;;;;;;5067599;28;20611;-56
2022/01/26 20:48:34;;;;;;;33.77;16.93;;;;;;;;;;5086952;28;20642;-56
2022/01/26 20:51:00;;;;;;;33.00;18.70;;;;;;;;;;5065935;28;20200;-56
2022/01/26 20:53:27;;;;;;;28.83;17.50;;;;;;;;;;5065133;28;20676;-56
2022/01/26 20:55:53;;;;;;;28.10;16.77;;;;;;;;;;5079909;28;20179;-57
2022/01/26 20:58:19;;;;;;;28.70;18.13;;;;;;;;;;5068109;28;20560;-56
2022/01/26 21:00:52;;;;;;;28.50;17.43;;;;;;;;;;5050799;28;20207;-57
2022/01/26 21:03:19;;;;;;;32.50;16.67;;;;;;;;;;5066191;28;20722;-56
2022/01/26 21:05:51;;;;;;;30.87;16.50;;;;;;;;;;5080524;28;20178;-56
2022/01/26 21:08:21;;;;;;;29.27;15.43;;;;;;;;;;5084868;28;20290;-56
2022/01/26 21:10:51;;;;;;;30.77;16.90;;;;;;;;;;5067384;28;20178;-57
2022/01/26 21:13:20;;;;;;;29.77;16.03;;;;;;;;;;5068774;28;20164;-56
2022/01/26 21:15:49;;;;;;;28.17;16.77;;;;;;;;;;5064347;28;20704;-56
2022/01/26 21:18:19;;;;;;;30.27;17.17;;;;;;;;;;5066103;28;20573;-57
2022/01/26 21:20:46;;;;;;;27.97;16.87;;;;;;;;;;5066683;28;20553;-57
2022/01/26 21:23:13;;;;;;;32.43;16.90;;;;;;;;;;5068265;28;20301;-57
2022/01/26 21:25:40;;;;;;;28.63;16.67;;;;;;;;;;5082488;28;20433;-56
2022/01/26 21:28:09;;;;;;;24.47;14.00;;;;;;;;;;5068641;28;20179;-57
2022/01/26 21:30:35;;;;;;;29.83;16.60;;;;;;;;;;5085145;28;20175;-56
2022/01/26 21:33:02;;;;;;;31.00;16.50;;;;;;;;;;5064501;28;20259;-56